Time;durP1;ratioP1;P1;durP2;ratioP2;P2;SDS_P1;SDS_P2;PMS_P1;PMS_P2;Temp;Humidity;BMP_temperature;BMP_pressure;BME280_temperature;BME280_humidity;BME280_pressure;Samples;Min_cycle;Max_cycle;Signal;HPM_P1;HPM_P2
2023/01/05 00:00:01;;;;;;;20.20;3.92;;;;;;;9.88;100.00;101307.94;1265251;23;20284;-88
2023/01/05 00:00:42;;;;;;;28.90;5.32;;;;;;;9.87;100.00;101317.78;1265336;23;20306;-88
2023/01/05 00:01:14;;;;;;;16.88;4.32;;;;;;;9.87;100.00;101314.28;1267265;23;20261;-88
2023/01/05 00:01:46;;;;;;;20.90;4.90;;;;;;;9.85;100.00;101313.66;1261900;23;20277;-88
2023/01/05 00:02:17;;;;;;;18.02;4.55;;;;;;;9.85;100.00;101313.66;1271133;23;20712;-88
2023/01/05 00:02:55;;;;;;;26.33;4.60;;;;;;;9.81;100.00;101320.38;1271191;23;20618;-88
2023/01/05 00:03:26;;;;;;;19.45;6.07;;;;;;;9.82;100.00;101314.06;1277298;23;20686;-88
2023/01/05 00:03:58;;;;;;;32.38;4.68;;;;;;;9.79;100.00;101309.94;1265548;23;20308;-88
2023/01/05 00:04:29;;;;;;;24.38;4.05;;;;;;;9.81;100.00;101301.78;1264975;23;20269;-88
2023/01/05 00:05:01;;;;;;;20.23;5.18;;;;;;;9.80;100.00;101313.44;1264990;23;20273;-88
2023/01/05 00:05:32;;;;;;;22.30;5.30;;;;;;;9.83;100.00;101313.03;1271586;23;20289;-88
2023/01/05 00:06:07;;;;;;;22.05;4.43;;;;;;;9.86;100.00;101312.63;1258788;23;20313;-88
2023/01/05 00:06:39;;;;;;;17.67;6.07;;;;;;;9.83;100.00;101313.84;1261383;23;20254;-88
2023/01/05 00:07:11;;;;;;;23.25;4.60;;;;;;;9.83;100.00;101310.38;1258544;23;20277;-88
2023/01/05 00:07:43;;;;;;;21.50;6.68;;;;;;;9.82;100.00;101308.72;1262627;23;20345;-89
2023/01/05 00:08:14;;;;;;;19.92;4.38;;;;;;;9.85;100.00;101308.31;1269117;23;20253;-88
2023/01/05 00:08:46;;;;;;;16.90;3.45;;;;;;;9.82;100.00;101308.72;1265703;23;20265;-88
2023/01/05 00:09:18;;;;;;;22.45;4.28;;;;;;;9.82;100.00;101308.72;1265502;23;20266;-88
2023/01/05 00:09:50;;;;;;;21.67;5.28;;;;;;;9.79;100.00;101309.13;1258993;23;20273;-88
2023/01/05 00:22:29;;;;;;;15.45;4.40;;;;;;;9.87;100.00;101306.31;1273285;23;20272;-87
2023/01/05 00:22:29;;;;;;;15.02;3.80;;;;;;;9.84;100.00;101301.38;1274949;23;20347;-89
2023/01/05 00:23:01;;;;;;;17.13;3.72;;;;;;;9.83;100.00;101318.34;1266855;23;20269;-88
2023/01/05 00:23:32;;;;;;;18.70;3.85;;;;;;;9.83;100.00;101310.38;1265241;23;20276;-88
2023/01/05 00:24:04;;;;;;;16.20;4.38;;;;;;;9.82;100.00;101314.88;1264848;23;20439;-88
2023/01/05 00:24:35;;;;;;;23.10;3.88;;;;;;;9.83;100.00;101310.38;1273267;23;20253;-88
2023/01/05 00:25:13;;;;;;;24.33;5.45;;;;;;;9.80;100.00;101316.09;1271461;23;20269;-88
2023/01/05 00:25:45;;;;;;;24.33;4.10;;;;;;;9.80;100.00;101310.78;1271506;23;20769;-88
2023/01/05 00:26:17;;;;;;;27.67;5.30;;;;;;;9.79;100.00;101309.94;1259203;23;20664;-89
2023/01/05 00:26:49;;;;;;;29.00;5.25;;;;;;;9.81;100.00;101323.88;1263059;23;20286;-87
2023/01/05 00:27:20;;;;;;;24.00;7.07;;;;;;;9.82;100.00;101319.38;1267182;23;20273;-88
2023/01/05 00:27:52;;;;;;;19.23;3.75;;;;;;;9.83;100.00;101318.34;1271338;23;20276;-88
2023/01/05 00:28:24;;;;;;;21.25;4.53;;;;;;;9.84;100.00;101317.31;1271161;23;20272;-89
2023/01/05 00:28:56;;;;;;;21.20;4.20;;;;;;;9.84;100.00;101322.66;1273527;23;20698;-88
2023/01/05 00:29:27;;;;;;;26.20;5.80;;;;;;;9.83;100.00;101321.00;1264404;23;20280;-88
2023/01/05 00:29:59;;;;;;;34.70;5.07;;;;;;;9.81;100.00;101320.38;1267338;23;20583;-88
2023/01/05 00:30:33;;;;;;;17.85;3.72;;;;;;;9.83;100.00;101311.19;1265200;23;20322;-88
2023/01/05 00:31:05;;;;;;;13.82;3.85;;;;;;;9.85;100.00;101318.97;1265187;23;20278;-88
2023/01/05 00:31:37;;;;;;;24.50;4.10;;;;;;;9.89;100.00;101314.91;1267410;23;20630;-88
2023/01/05 00:32:08;;;;;;;22.85;6.50;;;;;;;9.88;100.00;101326.56;1258975;23;20285;-88
2023/01/05 00:32:41;;;;;;;17.15;3.42;;;;;;;9.85;100.00;101313.66;1265109;23;20363;-88
2023/01/05 00:33:15;;;;;;;24.00;5.20;;;;;;;9.86;100.00;101323.28;1267114;23;20421;-88
2023/01/05 00:33:46;;;;;;;19.23;5.18;;;;;;;9.87;100.00;101324.94;1264908;23;20273;-88
2023/01/05 00:34:18;;;;;;;21.17;4.93;;;;;;;9.87;100.00;101311.63;1271483;23;20257;-88
2023/01/05 00:34:53;;;;;;;22.45;4.90;;;;;;;9.86;100.00;101323.28;1270891;23;20275;-88
2023/01/05 00:35:24;;;;;;;25.83;4.55;;;;;;;9.86;100.00;101320.59;1264852;23;20695;-88
2023/01/05 00:35:56;;;;;;;26.50;5.40;;;;;;;9.83;100.00;101315.69;1271356;23;20508;-88
2023/01/05 00:36:27;;;;;;;17.65;3.60;;;;;;;9.83;100.00;101299.72;1271150;23;20280;-89
2023/01/05 00:36:59;;;;;;;21.70;5.28;;;;;;;9.87;100.00;101307.13;1271417;23;20732;-88
2023/01/05 00:37:32;;;;;;;22.25;3.38;;;;;;;9.86;100.00;101321.47;1265019;23;20281;-88
2023/01/05 00:38:05;;;;;;;23.63;3.75;;;;;;;9.89;100.00;101317.56;1271341;23;20296;-88
2023/01/05 00:38:36;;;;;;;19.27;4.13;;;;;;;9.90;100.00;101317.38;1271132;23;20593;-88
2023/01/05 00:39:10;;;;;;;15.27;4.55;;;;;;;9.85;100.00;101325.09;1271090;23;20268;-88
2023/01/05 00:39:41;;;;;;;21.63;6.43;;;;;;;9.85;100.00;101318.97;1265500;23;20273;-88
2023/01/05 00:40:16;;;;;;;24.83;5.38;;;;;;;9.85;100.00;101303.00;1265409;23;20277;-89
2023/01/05 00:40:48;;;;;;;19.83;4.60;;;;;;;9.79;100.00;101309.13;1264860;23;20280;-88
2023/01/05 00:41:20;;;;;;;20.50;4.15;;;;;;;9.78;100.00;101303.00;1271181;23;20271;-87
2023/01/05 00:41:51;;;;;;;23.52;4.13;;;;;;;9.79;100.00;101319.78;1271258;23;20269;-88
2023/01/05 00:42:23;;;;;;;15.60;3.50;;;;;;;9.80;100.00;101311.59;1270919;23;20273;-88
2023/01/05 00:42:55;;;;;;;16.60;3.88;;;;;;;9.80;100.00;101316.09;1265338;23;20269;-88
2023/01/05 00:43:27;;;;;;;22.85;5.13;;;;;;;9.77;100.00;101324.47;1266964;23;20655;-88
2023/01/05 00:43:58;;;;;;;19.33;5.18;;;;;;;9.76;100.00;101320.16;1259242;23;20270;-87
2023/01/05 00:44:30;;;;;;;21.02;5.15;;;;;;;9.74;100.00;101322.22;1261489;23;20616;-89
2023/01/05 00:45:03;;;;;;;22.52;4.75;;;;;;;9.77;100.00;101319.16;1265421;23;20272;-88
2023/01/05 00:45:35;;;;;;;27.95;4.47;;;;;;;9.72;100.00;101324.25;1271464;23;20670;-88
2023/01/05 00:46:06;;;;;;;19.20;5.60;;;;;;;9.67;100.00;101324.84;1271135;23;20351;-88
2023/01/05 00:46:38;;;;;;;21.30;5.40;;;;;;;9.67;100.00;101326.69;1271319;23;20765;-88
2023/01/05 00:47:10;;;;;;;15.88;4.38;;;;;;;9.68;100.00;101323.00;1267233;23;20264;-87
2023/01/05 00:47:41;;;;;;;24.23;5.13;;;;;;;9.66;100.00;101317.91;1271138;23;20765;-88
2023/01/05 00:48:13;;;;;;;27.80;6.75;;;;;;;9.71;100.00;101323.44;1271335;23;20329;-88
2023/01/05 00:48:44;;;;;;;22.50;3.13;;;;;;;9.69;100.00;101319.34;1265078;23;20280;-88
2023/01/05 00:49:16;;;;;;;17.83;4.07;;;;;;;9.69;100.00;101332.63;1265133;23;20277;-88
2023/01/05 00:49:48;;;;;;;22.17;4.28;;;;;;;9.69;100.00;101335.28;1258978;23;20799;-88
2023/01/05 00:50:21;;;;;;;19.52;4.25;;;;;;;9.65;100.00;101334.88;1259371;23;20269;-88
2023/01/05 00:50:52;;;;;;;21.80;5.28;;;;;;;9.66;100.00;101341.00;1259036;23;20266;-88
2023/01/05 00:51:24;;;;;;;22.63;4.13;;;;;;;9.65;100.00;101336.72;1267922;23;20623;-88
2023/01/05 00:51:56;;;;;;;16.30;3.78;;;;;;;9.62;100.00;101327.28;1259298;23;20321;-89
2023/01/05 00:52:27;;;;;;;24.63;5.70;;;;;;;9.64;100.00;101322.59;1265079;23;20333;-89
2023/01/05 00:52:59;;;;;;;19.75;4.25;;;;;;;9.62;100.00;101329.13;1265097;23;20424;-89
2023/01/05 00:53:31;;;;;;;23.75;4.65;;;;;;;9.60;100.00;101332.81;1265426;23;20333;-89
2023/01/05 00:54:04;;;;;;;20.17;3.60;;;;;;;9.59;100.00;101333.84;1270953;23;20300;-89
2023/01/05 00:54:36;;;;;;;18.08;3.88;;;;;;;9.63;100.00;101326.28;1270941;23;20329;-88
2023/01/05 00:55:08;;;;;;;19.60;3.90;;;;;;;9.62;100.00;101318.50;1265418;23;20788;-89
2023/01/05 00:55:43;;;;;;;26.40;4.65;;;;;;;9.64;100.00;101327.91;1264950;23;20265;-89
2023/01/05 00:56:15;;;;;;;18.20;3.85;;;;;;;9.64;100.00;101321.78;1270876;23;20273;-88
2023/01/05 00:56:49;;;;;;;18.90;3.72;;;;;;;9.65;100.00;101318.09;1264897;23;20308;-88
2023/01/05 00:57:20;;;;;;;20.60;4.00;;;;;;;9.66;100.00;101325.06;1265327;23;20322;-88
2023/01/05 00:57:52;;;;;;;19.70;3.80;;;;;;;9.65;100.00;101320.75;1271114;23;20269;-88
2023/01/05 00:58:24;;;;;;;22.90;4.55;;;;;;;9.67;100.00;101321.38;1271034;23;20313;-88
2023/01/05 00:58:56;;;;;;;19.92;3.97;;;;;;;9.65;100.00;101323.41;1265478;23;20437;-88
2023/01/05 00:59:28;;;;;;;22.30;5.55;;;;;;;9.62;100.00;101326.47;1265234;23;20365;-89
2023/01/05 01:00:02;;;;;;;17.08;4.03;;;;;;;9.62;100.00;101323.81;1264989;23;20280;-88
2023/01/05 01:00:34;;;;;;;26.48;6.45;;;;;;;9.59;100.00;101331.16;1271318;23;20269;-89
2023/01/05 01:01:12;;;;;;;25.65;4.75;;;;;;;9.61;100.00;101333.63;1271297;23;20355;-89
2023/01/05 01:01:48;;;;;;;23.67;5.22;;;;;;;9.56;100.00;101336.84;1267676;23;20250;-89
2023/01/05 01:02:20;;;;;;;21.50;4.15;;;;;;;9.58;100.00;101336.66;1270999;23;20697;-88
2023/01/05 01:02:52;;;;;;;12.50;3.60;;;;;;;9.58;100.00;101334.00;1271059;23;20308;-89
2023/01/05 01:03:23;;;;;;;20.83;3.50;;;;;;;9.55;100.00;101335.22;1273643;23;20253;-89
2023/01/05 01:03:55;;;;;;;25.17;5.93;;;;;;;9.52;100.00;101338.28;1273189;23;20773;-89
2023/01/05 01:04:27;;;;;;;20.48;3.70;;;;;;;9.52;100.00;101340.94;1265064;23;20280;-87
2023/01/05 01:04:58;;;;;;;20.42;6.05;;;;;;;9.52;100.00;101338.28;1265069;23;20280;-89
2023/01/05 01:05:30;;;;;;;28.25;5.97;;;;;;;9.49;100.00;101336.00;1266789;23;20586;-89
2023/01/05 01:06:01;;;;;;;18.75;4.55;;;;;;;9.49;100.00;101333.34;1271166;23;20328;-88
2023/01/05 01:06:33;;;;;;;23.88;3.50;;;;;;;9.48;100.00;101334.38;1264439;23;20281;-89
2023/01/05 01:07:05;;;;;;;14.55;2.97;;;;;;;9.46;100.00;101331.09;1271285;23;20625;-88
2023/01/05 01:07:37;;;;;;;19.27;6.00;;;;;;;9.46;100.00;101328.44;1265224;23;20277;-89
2023/01/05 01:08:08;;;;;;;17.02;4.97;;;;;;;9.50;100.00;101347.47;1265104;23;20280;-88
2023/01/05 01:08:40;;;;;;;24.23;4.47;;;;;;;9.51;100.00;101343.78;1265059;23;20272;-87
2023/01/05 01:09:12;;;;;;;25.63;4.05;;;;;;;9.49;100.00;101341.34;1259060;23;20266;-89
2023/01/05 01:09:44;;;;;;;17.23;3.78;;;;;;;9.46;100.00;101339.06;1267304;23;20268;-88
2023/01/05 01:10:16;;;;;;;17.30;3.97;;;;;;;9.47;100.00;101342.53;1259097;23;20270;-88
2023/01/05 01:10:47;;;;;;;20.00;3.83;;;;;;;9.47;100.00;101348.69;1264670;23;20272;-88
2023/01/05 01:11:19;;;;;;;22.02;4.57;;;;;;;9.45;100.00;101345.41;1265255;23;20301;-89
2023/01/05 01:11:51;;;;;;;19.02;3.58;;;;;;;9.41;100.00;101344.16;1265176;23;20273;-89
2023/01/05 01:12:21;;;;;;;27.30;5.95;;;;;;;9.38;100.00;101347.22;1264593;23;20285;-89
2023/01/05 01:12:54;;;;;;;19.95;4.35;;;;;;;9.36;100.00;101343.94;1271316;23;20013;-88
2023/01/05 01:13:27;;;;;;;21.58;4.75;;;;;;;9.35;100.00;101339.63;1265158;23;20373;-89
2023/01/05 01:14:00;;;;;;;22.13;4.88;;;;;;;9.36;100.00;101340.44;1271137;23;20280;-89
2023/01/05 01:14:31;;;;;;;26.50;6.55;;;;;;;9.35;100.00;101346.78;1271158;23;20276;-89
2023/01/05 01:15:03;;;;;;;17.80;3.58;;;;;;;9.36;100.00;101349.25;1258569;23;20277;-89
2023/01/05 01:15:35;;;;;;;24.40;4.38;;;;;;;9.35;100.00;101350.25;1259039;23;20607;-88
2023/01/05 01:16:08;;;;;;;26.73;4.13;;;;;;;9.38;100.00;101349.88;1265060;23;20354;-88
2023/01/05 01:16:41;;;;;;;16.92;4.10;;;;;;;9.38;100.00;101344.56;1265223;23;20729;-89
2023/01/05 01:17:12;;;;;;;28.75;4.13;;;;;;;9.39;100.00;101351.50;1258867;23;20314;-89
2023/01/05 01:17:45;;;;;;;20.13;4.57;;;;;;;9.38;100.00;101354.38;1264847;23;20289;-89
2023/01/05 01:18:16;;;;;;;24.33;4.28;;;;;;;9.37;100.00;101342.91;1264912;23;20277;-89
2023/01/05 01:18:48;;;;;;;23.75;4.78;;;;;;;9.39;100.00;101346.19;1274169;23;20253;-89
2023/01/05 01:19:22;;;;;;;22.20;5.72;;;;;;;9.41;100.00;101353.97;1267993;23;20400;-89
2023/01/05 01:19:54;;;;;;;20.63;5.80;;;;;;;9.49;100.00;101351.16;1271081;23;20281;-88
2023/01/05 01:20:25;;;;;;;20.67;5.75;;;;;;;9.43;100.00;101352.75;1271452;23;20741;-89
2023/01/05 01:20:57;;;;;;;16.25;6.22;;;;;;;9.46;100.00;101357.69;1265037;23;20622;-88
2023/01/05 01:21:28;;;;;;;18.02;4.68;;;;;;;9.47;100.00;101361.97;1265219;23;20665;-88
2023/01/05 01:22:00;;;;;;;28.17;4.57;;;;;;;9.48;100.00;101355.63;1265112;23;20300;-88
2023/01/05 01:22:32;;;;;;;20.85;5.07;;;;;;;9.46;100.00;101357.69;1265244;23;20339;-88
2023/01/05 01:23:03;;;;;;;16.63;4.03;;;;;;;9.48;100.00;101355.63;1270932;23;20732;-88
2023/01/05 01:23:39;;;;;;;15.50;3.63;;;;;;;9.50;100.00;101356.25;1265229;23;20273;-88
2023/01/05 01:24:22;;;;;;;19.20;3.05;;;;;;;9.48;100.00;101352.97;1267347;23;20253;-89
2023/01/05 01:24:54;;;;;;;23.35;6.78;;;;;;;9.49;100.00;101351.97;1261065;23;20261;-89
2023/01/05 01:25:26;;;;;;;24.55;4.97;;;;;;;9.53;100.00;101358.53;1259024;23;20401;-89
2023/01/05 01:25:57;;;;;;;25.15;4.45;;;;;;;9.49;100.00;101357.28;1261003;23;20584;-88
2023/01/05 01:26:29;;;;;;;20.20;4.70;;;;;;;9.48;100.00;101365.47;1261280;23;20703;-89
2023/01/05 01:27:00;;;;;;;26.75;6.07;;;;;;;9.49;100.00;101362.59;1259283;23;20285;-89
2023/01/05 01:27:32;;;;;;;22.25;4.40;;;;;;;9.51;100.00;101359.75;1264946;23;20305;-89
2023/01/05 01:28:05;;;;;;;20.52;4.65;;;;;;;9.53;100.00;101363.84;1271196;23;20273;-88
2023/01/05 01:28:37;;;;;;;17.83;5.03;;;;;;;9.50;100.00;101358.94;1265254;23;20408;-89
2023/01/05 01:29:08;;;;;;;23.45;5.95;;;;;;;9.50;100.00;101363.41;1273069;23;20348;-88
2023/01/05 01:29:40;;;;;;;16.20;4.03;;;;;;;9.48;100.00;101360.97;1265219;23;20325;-88
2023/01/05 01:30:11;;;;;;;14.70;4.03;;;;;;;9.49;100.00;101351.97;1267440;23;20253;-88
2023/01/05 01:30:43;;;;;;;24.98;5.22;;;;;;;9.51;100.00;101365.88;1264981;23;20273;-89
2023/01/05 01:31:15;;;;;;;18.48;5.50;;;;;;;9.52;100.00;101366.69;1271276;23;20324;-88
2023/01/05 01:31:49;;;;;;;27.05;3.90;;;;;;;9.54;100.00;101360.16;1264423;23;20349;-89
2023/01/05 01:32:23;;;;;;;22.17;4.57;;;;;;;9.50;100.00;101366.91;1264861;23;20605;-88
2023/01/05 01:32:54;;;;;;;20.25;3.92;;;;;;;9.48;100.00;101349.50;1271109;23;20279;-89
2023/01/05 01:33:27;;;;;;;15.63;3.38;;;;;;;9.47;100.00;101356.66;1273172;23;20334;-89
2023/01/05 01:33:59;;;;;;;25.83;4.72;;;;;;;9.46;100.00;101367.50;1265327;23;20354;-88
2023/01/05 01:34:30;;;;;;;22.20;3.95;;;;;;;9.46;100.00;101362.19;1258914;23;20273;-89
2023/01/05 01:35:02;;;;;;;16.02;6.40;;;;;;;9.46;100.00;101352.34;1266873;23;20264;-88
2023/01/05 01:35:37;;;;;;;15.60;3.25;;;;;;;9.46;100.00;101363.00;1265169;23;20344;-88
2023/01/05 01:36:09;;;;;;;20.25;5.00;;;;;;;9.48;100.00;101366.28;1265091;23;20273;-88
2023/01/05 01:36:41;;;;;;;22.40;5.22;;;;;;;9.49;100.00;101367.91;1267205;23;20341;-88
2023/01/05 01:37:14;;;;;;;16.08;4.25;;;;;;;9.51;100.00;101370.38;1259414;23;20281;-89
2023/01/05 01:37:50;;;;;;;17.50;4.88;;;;;;;9.50;100.00;101372.22;1259082;23;20277;-89
2023/01/05 01:38:23;;;;;;;23.83;5.93;;;;;;;9.46;100.00;101368.31;1271455;23;20273;-89
2023/01/05 01:38:54;;;;;;;16.35;3.65;;;;;;;9.42;100.00;101367.06;1266795;23;20292;-88
2023/01/05 01:39:26;;;;;;;23.77;5.45;;;;;;;9.41;100.00;101370.75;1265596;23;20353;-89
2023/01/05 01:40:06;;;;;;;13.95;4.05;;;;;;;9.38;100.00;101376.47;1277243;23;20807;-89
2023/01/05 01:40:43;;;;;;;19.70;4.88;;;;;;;9.40;100.00;101374.41;1271375;23;20280;-89
2023/01/05 01:41:15;;;;;;;23.98;5.90;;;;;;;9.38;100.00;101371.13;1265313;23;20265;-89
2023/01/05 01:41:46;;;;;;;18.52;3.85;;;;;;;9.37;100.00;101374.81;1270477;23;20300;-90
2023/01/05 01:42:20;;;;;;;22.15;5.65;;;;;;;9.37;100.00;101381.97;1264960;23;20414;-89
2023/01/05 01:42:52;;;;;;;19.10;4.85;;;;;;;9.35;100.00;101368.06;1271508;23;20658;-88
2023/01/05 01:43:43;;;;;;;21.00;5.38;;;;;;;9.38;100.00;101381.78;1258822;23;20290;-89
2023/01/05 01:44:46;;;;;;;15.38;4.07;;;;;;;9.39;100.00;101375.44;1258858;23;20373;-89
2023/01/05 01:45:23;;;;;;;27.55;4.50;;;;;;;9.38;100.00;101376.47;1268014;23;20036;-89
2023/01/05 01:45:55;;;;;;;15.38;3.22;;;;;;;9.37;100.00;101374.81;1266453;23;20579;-89
2023/01/05 01:46:27;;;;;;;17.80;3.95;;;;;;;9.40;100.00;101382.41;1264894;23;20270;-88
2023/01/05 01:46:59;;;;;;;21.42;4.68;;;;;;;9.41;100.00;101381.38;1273472;23;20264;-88
2023/01/05 01:47:48;;;;;;;16.98;4.35;;;;;;;9.38;100.00;101375.63;1270672;23;20312;-89
2023/01/05 01:48:19;;;;;;;11.55;3.22;;;;;;;9.35;100.00;101371.53;1273613;23;20311;-88
2023/01/05 01:49:05;;;;;;;14.00;4.88;;;;;;;9.35;100.00;101379.50;1277306;23;20272;-89
2023/01/05 01:49:37;;;;;;;16.83;3.85;;;;;;;9.38;100.00;101386.28;1271036;23;20284;-88
2023/01/05 01:50:22;;;;;;;13.55;4.32;;;;;;;9.35;100.00;101382.16;1267360;23;20265;-88
2023/01/05 01:50:54;;;;;;;20.65;5.65;;;;;;;9.32;100.00;101371.94;1265177;23;20344;-89
2023/01/05 01:51:28;;;;;;;17.80;4.60;;;;;;;9.36;100.00;101389.13;1271347;23;20284;-89
2023/01/05 01:52:00;;;;;;;20.88;4.25;;;;;;;9.36;100.00;101383.00;1265297;23;20300;-89
2023/01/05 01:52:34;;;;;;;22.95;5.22;;;;;;;9.37;100.00;101379.31;1271222;23;20283;-88
2023/01/05 01:53:11;;;;;;;16.60;3.63;;;;;;;9.44;100.00;101383.66;1270952;23;20277;-89
2023/01/05 01:53:49;;;;;;;14.90;3.30;;;;;;;9.41;100.00;101377.91;1265115;23;20313;-88
2023/01/05 01:54:21;;;;;;;12.63;2.95;;;;;;;9.47;100.00;101382.44;1264538;23;20277;-89
2023/01/05 01:54:53;;;;;;;17.38;4.00;;;;;;;9.45;100.00;101382.63;1277243;23;20295;-89
2023/01/05 01:55:25;;;;;;;15.35;3.85;;;;;;;9.44;100.00;101383.66;1264637;23;20273;-89
2023/01/05 01:56:00;;;;;;;17.73;4.70;;;;;;;9.45;100.00;101393.25;1267191;23;20717;-89
2023/01/05 01:56:36;;;;;;;25.58;4.78;;;;;;;9.42;100.00;101385.69;1271146;23;20665;-89
2023/01/05 01:57:09;;;;;;;19.35;3.10;;;;;;;9.42;100.00;101385.69;1265441;23;20265;-88
2023/01/05 01:57:43;;;;;;;14.23;3.08;;;;;;;9.43;100.00;101384.66;1271212;23;20276;-89
2023/01/05 01:58:16;;;;;;;22.33;4.57;;;;;;;9.43;100.00;101384.66;1271059;23;20265;-88
2023/01/05 01:58:48;;;;;;;22.65;5.35;;;;;;;9.46;100.00;101388.78;1267257;23;20257;-88
2023/01/05 01:59:21;;;;;;;16.55;3.40;;;;;;;9.47;100.00;101391.22;1265336;23;20817;-88
2023/01/05 01:59:54;;;;;;;15.80;2.88;;;;;;;9.48;100.00;101387.56;1271139;23;20292;-89
2023/01/05 02:00:26;;;;;;;22.63;6.13;;;;;;;9.46;100.00;101394.91;1264927;23;20265;-89
2023/01/05 02:00:59;;;;;;;16.58;3.45;;;;;;;9.45;100.00;101387.94;1266961;23;20873;-90
2023/01/05 02:01:32;;;;;;;14.10;3.45;;;;;;;9.46;100.00;101394.09;1265337;23;20348;-88
2023/01/05 02:02:05;;;;;;;17.02;5.57;;;;;;;9.43;100.00;101383.84;1271135;23;20269;-89
2023/01/05 02:02:37;;;;;;;20.20;4.53;;;;;;;9.45;100.00;101387.13;1271077;23;20311;-88
2023/01/05 02:03:10;;;;;;;13.18;3.55;;;;;;;9.46;100.00;101384.28;1265077;23;20278;-87
2023/01/05 02:03:42;;;;;;;17.45;3.10;;;;;;;9.51;100.00;101389.81;1265118;23;20332;-89
2023/01/05 02:04:14;;;;;;;26.15;5.57;;;;;;;9.49;100.00;101383.88;1259147;23;20285;-88
2023/01/05 02:04:45;;;;;;;25.45;7.28;;;;;;;9.51;100.00;101392.47;1253217;23;20358;-88
2023/01/05 02:05:21;;;;;;;19.73;3.35;;;;;;;9.50;100.00;101388.19;1255126;23;20255;-88
2023/01/05 02:05:53;;;;;;;14.85;2.50;;;;;;;9.52;100.00;101388.81;1259064;23;20627;-88
2023/01/05 02:06:24;;;;;;;16.27;2.65;;;;;;;9.53;100.00;101386.97;1258968;23;20277;-88
2023/01/05 02:06:57;;;;;;;17.42;4.85;;;;;;;9.50;100.00;101390.84;1265083;23;20717;-88
2023/01/05 02:07:32;;;;;;;18.60;4.95;;;;;;;9.52;100.00;101388.81;1272971;23;20263;-89
2023/01/05 02:08:10;;;;;;;23.48;5.80;;;;;;;9.52;100.00;101382.66;1264652;23;20348;-88
2023/01/05 02:08:42;;;;;;;18.13;4.82;;;;;;;9.50;100.00;101390.84;1265148;23;20273;-89
2023/01/05 02:09:14;;;;;;;15.50;3.30;;;;;;;9.53;100.00;101392.28;1258736;23;20327;-89
2023/01/05 02:09:46;;;;;;;14.20;3.42;;;;;;;9.51;100.00;101392.47;1271509;23;20279;-89
2023/01/05 02:10:45;;;;;;;18.85;3.75;;;;;;;9.52;100.00;101393.28;1259253;23;20274;-89
2023/01/05 02:11:26;;;;;;;;;;;;;;;9.48;100.00;101392.88;1260257;23;20274;-88
2023/01/05 02:12:16;;;;;;;22.50;2.88;;;;;;;9.48;100.00;101400.84;1260595;23;19917;-88
2023/01/05 02:13:03;;;;;;;21.50;4.93;;;;;;;9.50;100.00;101392.69;1267454;23;20276;-89
2023/01/05 02:13:58;;;;;;;27.10;6.20;;;;;;;9.49;100.00;101389.19;1276924;23;20688;-88
2023/01/05 02:14:57;;;;;;;19.20;3.15;;;;;;;9.50;100.00;101395.34;1258689;23;20608;-89
2023/01/05 02:15:46;;;;;;;15.20;3.10;;;;;;;9.49;100.00;101399.00;1267486;23;20300;-88
2023/01/05 02:16:17;;;;;;;13.73;3.33;;;;;;;9.46;100.00;101389.59;1268100;23;20704;-89
2023/01/05 02:17:08;;;;;;;22.27;3.50;;;;;;;9.48;100.00;101392.88;1265204;23;20278;-89
2023/01/05 02:17:54;;;;;;;11.18;2.90;;;;;;;9.52;100.00;101404.75;1271685;23;20273;-89
2023/01/05 02:18:35;;;;;;;16.98;3.40;;;;;;;9.47;100.00;101401.88;1266532;23;20442;-89
2023/01/05 02:19:25;;;;;;;15.73;2.75;;;;;;;9.50;100.00;101398.81;1265524;23;20364;-88
2023/01/05 02:20:12;;;;;;;12.13;2.60;;;;;;;9.60;100.00;101401.97;1265243;23;20093;-89
2023/01/05 02:21:02;;;;;;;13.00;3.67;;;;;;;9.53;100.00;101395.75;1268190;23;20025;-89
2023/01/05 02:22:11;;;;;;;14.52;3.25;;;;;;;9.53;100.00;101389.63;1265152;23;20280;-88
2023/01/05 02:22:42;;;;;;;19.85;4.55;;;;;;;9.52;100.00;101404.75;1272110;23;20261;-88
2023/01/05 02:23:29;;;;;;;22.52;3.83;;;;;;;9.52;100.00;101402.09;1269268;23;20649;-89
2023/01/05 02:24:19;;;;;;;18.23;3.58;;;;;;;9.52;100.00;101398.63;1271339;23;20745;-89
2023/01/05 02:25:26;;;;;;;16.60;4.45;;;;;;;9.50;100.00;101401.47;1266204;23;20273;-89
2023/01/05 02:26:16;;;;;;;15.32;2.30;;;;;;;9.57;100.00;101390.88;1247295;23;20330;-89
2023/01/05 02:27:05;;;;;;;25.23;5.18;;;;;;;9.59;100.00;101394.19;1275270;23;20747;-89
2023/01/05 02:27:52;;;;;;;14.85;3.38;;;;;;;9.58;100.00;101395.16;1271315;23;20277;-89
2023/01/05 02:28:26;;;;;;;9.52;2.85;;;;;;;9.56;100.00;101395.38;1268351;23;20269;-88
2023/01/05 02:29:09;;;;;;;25.55;5.68;;;;;;;9.55;100.00;101393.72;1265509;23;20401;-88
2023/01/05 02:29:54;;;;;;;21.50;3.78;;;;;;;9.51;100.00;101395.13;1271556;23;20299;-88
2023/01/05 02:30:44;;;;;;;17.63;3.33;;;;;;;9.52;100.00;101388.81;1265024;23;20858;-88
2023/01/05 02:31:22;;;;;;;15.25;3.70;;;;;;;9.55;100.00;101399.03;1266490;23;20277;-88
2023/01/05 02:32:11;;;;;;;20.05;3.40;;;;;;;9.51;100.00;101397.78;1265245;23;20276;-89
2023/01/05 02:32:53;;;;;;;21.05;4.43;;;;;;;9.50;100.00;101390.84;1265745;23;20277;-88
2023/01/05 02:33:39;;;;;;;;;;;;;;;9.55;100.00;101390.25;1259900;23;20289;-89
2023/01/05 02:34:48;;;;;;;16.65;2.85;;;;;;;9.51;100.00;101387.16;1253209;23;20012;-89
2023/01/05 02:35:36;;;;;;;21.60;3.42;;;;;;;9.54;100.00;101399.25;1268885;23;20344;-89
2023/01/05 02:36:35;;;;;;;28.58;3.22;;;;;;;9.51;100.00;101387.16;1269568;23;20283;-89
2023/01/05 02:37:19;;;;;;;16.63;3.78;;;;;;;9.52;100.00;101394.13;1255006;23;20342;-89
2023/01/05 02:38:00;;;;;;;14.55;4.28;;;;;;;9.52;100.00;101395.97;1262171;23;20266;-88
2023/01/05 02:38:48;;;;;;;20.52;3.83;;;;;;;9.58;100.00;101403.16;1259495;23;20351;-89
2023/01/05 02:39:32;;;;;;;18.83;3.30;;;;;;;9.54;100.00;101402.72;1261476;23;20250;-89
2023/01/05 02:40:19;;;;;;;45.47;6.25;;;;;;;9.55;100.00;101399.03;1270625;23;20280;-89
2023/01/05 02:40:55;;;;;;;24.80;5.20;;;;;;;9.55;100.00;101407.03;1259520;23;20844;-89
2023/01/05 02:41:33;;;;;;;22.38;4.07;;;;;;;9.55;100.00;101399.03;1271603;23;20280;-89
2023/01/05 02:42:13;;;;;;;8.48;2.60;;;;;;;9.54;100.00;101402.72;1265449;23;20332;-89
2023/01/05 02:42:49;;;;;;;11.48;3.83;;;;;;;9.55;100.00;101403.53;1265339;23;20273;-89
2023/01/05 02:43:23;;;;;;;18.95;3.63;;;;;;;9.52;100.00;101402.09;1265234;23;20026;-88
2023/01/05 02:43:56;;;;;;;11.68;3.45;;;;;;;9.53;100.00;101401.06;1271366;23;20691;-88
2023/01/05 02:44:29;;;;;;;18.30;3.58;;;;;;;9.55;100.00;101409.69;1273771;23;20288;-89
2023/01/05 02:45:03;;;;;;;23.50;3.38;;;;;;;9.53;100.00;101394.94;1259138;23;20782;-88
2023/01/05 02:45:35;;;;;;;26.85;5.95;;;;;;;9.54;100.00;101401.91;1264668;23;20284;-89
2023/01/05 02:46:07;;;;;;;25.17;3.85;;;;;;;9.55;100.00;101404.38;1273469;23;20288;-88
2023/01/05 02:46:38;;;;;;;15.82;4.32;;;;;;;9.52;100.00;101396.78;1253434;23;20270;-88
2023/01/05 02:47:28;;;;;;;33.95;5.93;;;;;;;9.57;100.00;101414.81;1259250;23;20288;-88
2023/01/05 02:48:05;;;;;;;19.67;4.03;;;;;;;9.58;100.00;101406.63;1259046;23;20289;-89
2023/01/05 02:48:38;;;;;;;18.30;6.45;;;;;;;9.57;100.00;101407.66;1265525;23;20272;-88
2023/01/05 02:49:10;;;;;;;14.70;3.17;;;;;;;9.53;100.00;101395.75;1259565;23;20266;-89
2023/01/05 02:49:41;;;;;;;19.13;3.33;;;;;;;9.54;100.00;101405.38;1267324;23;20350;-88
2023/01/05 02:50:18;;;;;;;21.52;5.13;;;;;;;9.58;100.00;101403.97;1265222;23;20273;-89
2023/01/05 02:51:00;;;;;;;15.02;3.50;;;;;;;9.54;100.00;101401.91;1265734;23;20276;-89
2023/01/05 02:51:36;;;;;;;20.75;3.67;;;;;;;9.52;100.00;101399.44;1265244;23;20265;-88
2023/01/05 02:52:08;;;;;;;15.05;3.10;;;;;;;9.53;100.00;101406.41;1265297;23;20276;-88
2023/01/05 02:53:00;;;;;;;19.75;3.42;;;;;;;9.54;100.00;101407.22;1265606;23;20981;-88
2023/01/05 02:53:37;;;;;;;19.77;3.95;;;;;;;9.54;100.00;101402.72;1253411;23;20367;-88